Time;durP1;ratioP1;P1;durP2;ratioP2;P2;SDS_P1;SDS_P2;PMS_P1;PMS_P2;Temp;Humidity;BMP_temperature;BMP_pressure;BME280_temperature;BME280_humidity;BME280_pressure;Samples;Min_cycle;Max_cycle;Signal;HPM_P1;HPM_P2
2022/01/18 00:00:25;;;;;;;14.87;4.00;;;;;;;0.77;100.00;102763.09;5001532;28;20237;-54
2022/01/18 00:02:51;;;;;;;14.77;3.13;;;;;;;0.72;100.00;102769.63;4997294;28;20290;-53
2022/01/18 00:05:18;;;;;;;13.87;3.90;;;;;;;0.75;100.00;102769.84;4991382;28;20339;-53
2022/01/18 00:07:45;;;;;;;17.50;4.53;;;;;;;0.82;100.00;102766.91;5001862;28;20255;-53
2022/01/18 00:10:12;;;;;;;15.77;4.47;;;;;;;0.70;100.00;102781.53;5001952;28;20221;-53
2022/01/18 00:12:56;;;;;;;17.83;4.47;;;;;;;0.60;100.00;102779.09;5006937;28;20239;-53
2022/01/18 00:15:38;;;;;;;14.50;4.80;;;;;;;0.59;100.00;102792.78;4999184;28;20247;-52
2022/01/18 00:18:09;;;;;;;14.83;4.07;;;;;;;0.54;100.00;102786.41;4991564;28;20230;-52
2022/01/18 00:20:46;;;;;;;12.27;4.60;;;;;;;0.64;100.00;102781.13;4996731;28;20229;-53
2022/01/18 00:23:13;;;;;;;13.40;4.00;;;;;;;0.66;100.00;102784.69;5008932;28;20282;-54
2022/01/18 00:25:40;;;;;;;19.20;4.60;;;;;;;0.60;100.00;102794.63;5000180;28;20255;-52
2022/01/18 00:28:08;;;;;;;36.53;6.70;;;;;;;0.64;100.00;102794.03;5007622;28;20258;-53
2022/01/18 00:30:55;;;;;;;15.43;4.50;;;;;;;0.42;100.00;102800.25;5001176;28;20362;-52
2022/01/18 00:33:26;;;;;;;16.13;4.43;;;;;;;0.68;100.00;102801.22;4997634;28;20244;-53
2022/01/18 00:36:00;;;;;;;14.73;3.70;;;;;;;0.62;100.00;102805.94;4998039;28;20225;-53
2022/01/18 00:38:31;;;;;;;18.03;4.77;;;;;;;0.50;100.00;102812.81;5004869;28;20289;-53
2022/01/18 00:40:58;;;;;;;14.17;4.03;;;;;;;0.46;100.00;102803.94;4997542;28;20230;-52
2022/01/18 00:43:26;;;;;;;9.97;3.80;;;;;;;0.50;100.00;102810.22;5004265;28;20323;-53
2022/01/18 00:45:53;;;;;;;17.77;5.13;;;;;;;0.51;100.00;102814.59;5002044;28;20256;-54
2022/01/18 00:48:19;;;;;;;18.03;4.37;;;;;;;0.50;100.00;102818.00;5007746;28;20319;-53
2022/01/18 00:50:46;;;;;;;11.30;3.63;;;;;;;0.51;100.00;102819.78;5000792;28;20636;-50
2022/01/18 00:53:15;;;;;;;12.63;3.77;;;;;;;0.45;100.00;102825.38;5008484;28;20239;-54
2022/01/18 00:55:51;;;;;;;17.93;4.00;;;;;;;0.59;100.00;102828.97;5011996;28;20330;-52
2022/01/18 00:58:17;;;;;;;17.40;5.07;;;;;;;0.55;100.00;102832.13;4997885;28;20587;-53
2022/01/18 01:00:45;;;;;;;17.57;4.13;;;;;;;0.51;100.00;102824.94;4997607;28;20267;-52
2022/01/18 01:03:11;;;;;;;12.50;4.37;;;;;;;0.36;100.00;102825.63;5018768;28;20246;-53
2022/01/18 01:05:38;;;;;;;18.73;5.27;;;;;;;0.44;100.00;102824.47;5017213;28;20680;-52
2022/01/18 01:08:04;;;;;;;9.43;4.27;;;;;;;0.45;100.00;102828.84;5012073;28;20297;-53
2022/01/18 01:10:31;;;;;;;15.37;3.77;;;;;;;0.38;100.00;102833.47;5011279;28;20257;-53
2022/01/18 01:12:57;;;;;;;16.77;5.23;;;;;;;0.39;100.00;102823.25;5008451;28;20250;-55
2022/01/18 01:15:25;;;;;;;18.27;4.53;;;;;;;0.38;100.00;102824.03;5005759;28;20247;-53
2022/01/18 01:18:08;;;;;;;19.87;4.57;;;;;;;0.34;100.00;102832.34;5007835;28;20227;-51
2022/01/18 01:34:38;;;;;;;11.90;5.00;;;;;;;0.45;100.00;102831.44;5006811;28;20724;-53
2022/01/18 01:42:54;;;;;;;15.47;4.80;;;;;;;0.47;100.00;102829.88;4998800;28;20322;-54
2022/01/18 01:45:19;;;;;;;18.30;4.37;;;;;;;0.47;100.00;102834.16;5010439;28;20248;-53
2022/01/18 01:47:50;;;;;;;22.43;4.43;;;;;;;0.52;100.00;102826.72;5011084;28;20244;-54
2022/01/18 01:50:19;;;;;;;22.87;5.97;;;;;;;0.46;100.00;102829.78;5005998;28;20232;-54
2022/01/18 01:52:46;;;;;;;15.67;6.20;;;;;;;0.47;100.00;102836.75;4992617;28;20802;-55
2022/01/18 01:55:13;;;;;;;17.50;4.23;;;;;;;0.47;100.00;102840.22;5009421;28;20270;-55
2022/01/18 01:57:39;;;;;;;11.87;4.60;;;;;;;0.48;100.00;102852.34;5007976;28;20261;-55
2022/01/18 02:00:08;;;;;;;16.93;4.00;;;;;;;0.62;100.00;102852.47;5012434;28;20303;-55
2022/01/18 02:02:35;;;;;;;18.93;5.20;;;;;;;0.46;100.00;102848.78;5008493;28;20286;-55
2022/01/18 02:05:01;;;;;;;14.07;4.57;;;;;;;0.46;100.00;102846.19;5012085;28;20258;-55
2022/01/18 02:07:29;;;;;;;17.13;4.67;;;;;;;0.43;100.00;102835.63;4992484;28;20241;-54
2022/01/18 02:09:55;;;;;;;17.10;5.57;;;;;;;0.39;100.00;102831.00;5010619;28;20769;-54
2022/01/18 02:12:22;;;;;;;15.63;4.83;;;;;;;0.44;100.00;102824.47;5006869;28;20482;-54
2022/01/18 02:23:39;;;;;;;11.60;4.07;;;;;;;0.23;100.00;102823.78;5004931;28;20239;-52
2022/01/18 02:26:05;;;;;;;18.77;5.17;;;;;;;0.24;100.00;102830.75;5003717;28;20612;-54
2022/01/18 02:28:32;;;;;;;12.40;3.83;;;;;;;0.26;100.00;102830.00;5008626;28;20236;-54
2022/01/18 02:30:58;;;;;;;14.57;5.10;;;;;;;0.17;100.00;102844.00;5003887;28;20717;-51
2022/01/18 02:33:25;;;;;;;13.13;4.37;;;;;;;0.26;100.00;102838.63;5009867;28;20240;-52
2022/01/18 02:35:51;;;;;;;12.23;4.63;;;;;;;0.32;100.00;102833.94;4993114;28;20264;-53
2022/01/18 02:38:19;;;;;;;25.53;5.73;;;;;;;0.34;100.00;102837.50;5004074;28;20722;-53
2022/01/18 02:40:46;;;;;;;12.07;4.23;;;;;;;0.29;100.00;102846.63;5022562;28;20262;-55
2022/01/18 02:45:57;;;;;;;16.87;5.07;;;;;;;0.20;100.00;102853.66;5010271;28;20364;-52
2022/01/18 02:48:24;;;;;;;22.87;4.27;;;;;;;0.26;100.00;102838.63;5001736;28;20324;-53
2022/01/18 02:50:51;;;;;;;18.80;4.73;;;;;;;0.24;100.00;102840.19;4998648;28;20575;-55
2022/01/18 02:53:18;;;;;;;14.37;5.37;;;;;;;0.20;100.00;102830.41;5007505;28;20237;-54
2022/01/18 02:55:50;;;;;;;22.07;5.33;;;;;;;0.29;100.00;102833.69;5006595;28;20233;-55
2022/01/18 02:58:24;;;;;;;13.70;3.90;;;;;;;0.24;100.00;102841.09;4989982;28;20304;-54
2022/01/18 03:03:31;;;;;;;19.53;4.27;;;;;;;0.26;100.00;102851.56;5009578;28;20680;-53
2022/01/18 03:05:58;;;;;;;17.00;4.40;;;;;;;0.23;100.00;102851.31;5008455;28;20224;-55
2022/01/18 03:08:25;;;;;;;11.77;3.90;;;;;;;0.11;100.00;102853.00;5004112;28;20237;-54
2022/01/18 03:10:52;;;;;;;17.33;5.37;;;;;;;0.05;100.00;102856.00;5004030;28;20259;-56
2022/01/18 03:13:19;;;;;;;12.73;4.47;;;;;;;0.10;100.00;102857.22;5001477;28;20274;-53
2022/01/18 03:15:46;;;;;;;11.13;4.83;;;;;;;0.12;100.00;102857.38;4999910;28;20254;-53
2022/01/18 03:18:13;;;;;;;20.23;5.70;;;;;;;0.07;100.00;102861.25;4992072;28;20292;-55
2022/01/18 03:20:40;;;;;;;13.73;3.57;;;;;;;0.13;100.00;102857.47;4997777;28;20271;-51
2022/01/18 03:23:11;;;;;;;19.73;6.47;;;;;;;0.08;100.00;102860.50;4999814;28;20267;-53
2022/01/18 03:25:51;;;;;;;14.00;3.53;;;;;;;0.01;100.00;102855.66;5003593;28;20338;-52
2022/01/18 03:28:17;;;;;;;18.77;4.20;;;;;;;-0.01;100.00;102863.28;4999333;28;20644;-51
2022/01/18 03:30:46;;;;;;;15.57;4.33;;;;;;;0.13;100.00;102861.75;5004059;28;21055;-50
2022/01/18 03:33:14;;;;;;;18.30;3.87;;;;;;;0.06;100.00;102862.06;4994530;28;20236;-55
2022/01/18 03:35:41;;;;;;;15.90;4.43;;;;;;;0.06;100.00;102874.97;5000929;28;20331;-53
2022/01/18 03:38:08;;;;;;;17.30;5.17;;;;;;;0.07;100.00;102879.34;5004587;28;20274;-53
2022/01/18 03:40:34;;;;;;;18.33;4.83;;;;;;;-0.05;100.00;102877.63;5012553;28;20259;-52
2022/01/18 03:43:02;;;;;;;16.70;4.67;;;;;;;0.03;100.00;102879.91;5003912;28;20229;-54
2022/01/18 03:45:40;;;;;;;16.80;4.30;;;;;;;0.01;100.00;102886.66;5003871;28;20293;-54
2022/01/18 03:48:10;;;;;;;15.37;3.93;;;;;;;0.01;100.00;102889.22;5007612;28;20235;-53
2022/01/18 03:50:37;;;;;;;12.50;5.40;;;;;;;0.05;100.00;102880.94;5006226;28;20273;-55
2022/01/18 03:53:03;;;;;;;8.80;3.63;;;;;;;0.10;100.00;102889.91;5003214;28;20237;-53
2022/01/18 03:55:30;;;;;;;21.63;5.07;;;;;;;0.16;100.00;102878.38;4995050;28;20248;-54
2022/01/18 03:57:56;;;;;;;17.60;4.57;;;;;;;0.16;100.00;102880.06;4995032;28;20259;-54
2022/01/18 04:00:26;;;;;;;19.27;5.37;;;;;;;0.15;100.00;102880.84;4997279;28;20245;-54
2022/01/18 04:02:54;;;;;;;14.80;4.40;;;;;;;0.15;100.00;102891.19;4996179;28;20217;-54
2022/01/18 04:05:20;;;;;;;14.97;4.83;;;;;;;0.05;100.00;102887.00;5008440;28;20272;-52
2022/01/18 04:07:47;;;;;;;11.87;4.17;;;;;;;0.04;100.00;102890.38;5001574;28;20295;-53
2022/01/18 04:10:14;;;;;;;19.03;6.00;;;;;;;0.08;100.00;102894.06;5001219;28;20313;-52
2022/01/18 04:12:41;;;;;;;16.50;5.33;;;;;;;0.14;100.00;102902.28;4989836;28;20232;-53
2022/01/18 04:15:09;;;;;;;15.27;4.47;;;;;;;0.10;100.00;102898.56;4998951;28;20290;-52
2022/01/18 04:17:52;;;;;;;19.37;4.40;;;;;;;0.20;100.00;102906.22;5003210;28;20287;-53
2022/01/18 04:25:57;;;;;;;10.27;3.37;;;;;;;0.44;100.00;102908.88;5001611;28;20636;-54
2022/01/18 04:28:33;;;;;;;17.70;4.67;;;;;;;0.44;100.00;102909.75;5001193;28;20301;-56
2022/01/18 04:30:59;;;;;;;15.13;4.27;;;;;;;0.50;100.00;102911.91;5009588;28;20276;-55
2022/01/18 04:33:27;;;;;;;18.20;3.80;;;;;;;0.60;100.00;102913.50;5004437;28;20237;-54
2022/01/18 04:35:54;;;;;;;12.47;3.80;;;;;;;0.56;100.00;102911.44;5006305;28;20563;-55
2022/01/18 04:38:20;;;;;;;17.30;4.77;;;;;;;0.59;100.00;102919.44;5006604;28;20256;-54
2022/01/18 04:40:48;;;;;;;16.17;3.50;;;;;;;0.66;100.00;102919.09;5008317;28;20290;-54
2022/01/18 04:43:19;;;;;;;8.37;3.67;;;;;;;0.69;100.00;102919.34;4997652;28;20232;-55
2022/01/18 04:48:33;;;;;;;12.67;3.70;;;;;;;0.70;100.00;102916.88;4999135;28;20236;-54
2022/01/18 04:51:01;;;;;;;11.57;3.83;;;;;;;0.70;100.00;102922.06;5005364;28;20251;-54
2022/01/18 04:53:30;;;;;;;8.83;4.23;;;;;;;0.80;100.00;102917.53;5002219;28;20403;-55
2022/01/18 04:55:59;;;;;;;12.07;3.87;;;;;;;0.87;100.00;102923.28;5004820;28;20730;-52
2022/01/18 04:58:26;;;;;;;17.40;4.03;;;;;;;0.84;100.00;102924.75;4998790;28;20231;-54
2022/01/18 05:00:55;;;;;;;19.90;4.57;;;;;;;0.87;100.00;102915.53;5008279;28;20606;-54
2022/01/18 05:03:21;;;;;;;13.03;3.97;;;;;;;0.92;100.00;102916.78;5004446;28;20310;-54
2022/01/18 05:05:52;;;;;;;11.00;4.17;;;;;;;1.01;100.00;102926.88;5002988;28;20244;-55
2022/01/18 05:08:18;;;;;;;12.20;3.93;;;;;;;0.98;100.00;102923.16;5009212;28;20243;-54
2022/01/18 05:10:53;;;;;;;20.73;4.40;;;;;;;1.01;100.00;102923.41;5018890;28;20250;-53
2022/01/18 05:13:37;;;;;;;23.30;4.27;;;;;;;0.99;100.00;102931.06;5006100;28;20321;-53
2022/01/18 05:16:21;;;;;;;13.83;4.53;;;;;;;0.93;100.00;102938.34;4994202;28;20232;-54
2022/01/18 05:19:10;;;;;;;13.57;4.47;;;;;;;0.95;100.00;102940.28;4996874;28;20931;-53
2022/01/18 05:24:20;;;;;;;11.43;3.70;;;;;;;0.94;100.00;102933.28;5006939;28;20390;-53
2022/01/18 05:26:46;;;;;;;18.93;4.27;;;;;;;0.93;100.00;102946.13;4997961;28;20344;-53
2022/01/18 05:29:13;;;;;;;25.93;4.60;;;;;;;0.90;100.00;102948.47;5002538;28;20324;-53
2022/01/18 05:31:39;;;;;;;16.50;4.10;;;;;;;0.84;100.00;102943.78;5014768;28;20793;-54
2022/01/18 05:34:05;;;;;;;18.40;4.83;;;;;;;0.83;100.00;102948.81;5000791;28;20264;-53
2022/01/18 05:36:32;;;;;;;25.63;3.50;;;;;;;0.79;100.00;102947.69;5003790;28;20271;-54
2022/01/18 05:38:59;;;;;;;15.63;4.33;;;;;;;0.85;100.00;102945.56;5002510;28;20224;-53
2022/01/18 05:41:26;;;;;;;13.97;4.00;;;;;;;0.82;100.00;102958.25;4999583;28;20243;-55
2022/01/18 05:43:52;;;;;;;16.40;4.13;;;;;;;0.79;100.00;102952.84;5000218;28;20322;-52
2022/01/18 05:46:18;;;;;;;9.87;3.20;;;;;;;0.80;100.00;102962.41;5002330;28;20408;-54
2022/01/18 05:48:45;;;;;;;11.17;3.37;;;;;;;0.81;100.00;102965.88;4997696;28;20229;-55
2022/01/18 05:51:13;;;;;;;13.57;3.90;;;;;;;0.78;100.00;102955.34;5005298;28;20284;-55
2022/01/18 05:53:41;;;;;;;17.60;4.27;;;;;;;0.78;100.00;102960.50;5004166;28;20252;-53
2022/01/18 05:56:11;;;;;;;16.93;5.40;;;;;;;0.85;100.00;102965.34;5015624;28;20242;-53
2022/01/18 05:58:37;;;;;;;17.17;4.67;;;;;;;0.85;100.00;102957.59;5010275;28;20315;-53
2022/01/18 06:01:04;;;;;;;15.30;4.80;;;;;;;0.76;100.00;102962.06;5007957;28;20316;-54
2022/01/18 06:03:35;;;;;;;7.33;3.00;;;;;;;0.71;100.00;102969.50;5004155;28;20241;-55
2022/01/18 06:08:45;;;;;;;13.47;4.13;;;;;;;0.59;100.00;102963.38;5001503;28;20774;-53
2022/01/18 06:11:13;;;;;;;9.50;2.63;;;;;;;0.58;100.00;102966.75;4994840;28;20612;-53
2022/01/18 06:13:40;;;;;;;13.97;3.93;;;;;;;0.58;100.00;102962.50;5003791;28;20236;-54
2022/01/18 06:16:06;;;;;;;11.67;3.40;;;;;;;0.64;100.00;102967.22;5006278;28;20265;-54
2022/01/18 06:18:32;;;;;;;15.00;3.60;;;;;;;0.71;100.00;102972.06;5011042;28;20259;-53
2022/01/18 06:20:59;;;;;;;14.50;4.57;;;;;;;0.75;100.00;102978.38;5007899;28;20259;-54
2022/01/18 06:23:25;;;;;;;16.10;3.37;;;;;;;0.76;100.00;102983.66;5006224;28;20243;-54
2022/01/18 06:25:52;;;;;;;12.27;4.30;;;;;;;0.80;100.00;102980.50;5002166;28;20232;-53
2022/01/18 06:28:19;;;;;;;22.73;4.40;;;;;;;0.93;100.00;102977.16;5003104;28;20741;-52
2022/01/18 06:30:46;;;;;;;17.87;3.93;;;;;;;0.95;100.00;102975.59;5002250;28;20233;-54
2022/01/18 06:33:12;;;;;;;11.63;4.10;;;;;;;0.93;100.00;102977.16;5007418;28;20293;-53
2022/01/18 06:35:38;;;;;;;15.67;3.33;;;;;;;0.90;100.00;102976.91;5012687;28;20285;-51
2022/01/18 06:38:08;;;;;;;14.23;3.87;;;;;;;0.93;100.00;102984.91;5001526;28;20933;-54
2022/01/18 06:40:35;;;;;;;11.50;3.57;;;;;;;0.98;100.00;102982.66;5003113;28;20322;-54
2022/01/18 06:43:03;;;;;;;17.63;3.57;;;;;;;1.01;100.00;102988.06;5006015;28;20259;-54
2022/01/18 06:45:31;;;;;;;12.13;3.90;;;;;;;1.05;100.00;102977.16;4993732;28;20763;-54
2022/01/18 06:47:58;;;;;;;19.27;3.97;;;;;;;1.08;100.00;102992.91;5000350;28;20229;-53
2022/01/18 06:50:24;;;;;;;15.97;3.83;;;;;;;1.12;100.00;102989.75;5001291;28;20261;-53
2022/01/18 06:52:50;;;;;;;13.63;4.00;;;;;;;1.15;100.00;102995.16;5004085;28;20262;-54
2022/01/18 06:55:17;;;;;;;13.53;3.50;;;;;;;1.21;100.00;102990.44;5002332;28;20272;-53
2022/01/18 06:57:43;;;;;;;13.53;3.07;;;;;;;1.41;100.00;102994.47;5001751;28;20232;-53
2022/01/18 07:00:10;;;;;;;18.33;3.50;;;;;;;1.30;100.00;103000.53;5001812;28;20231;-53
2022/01/18 07:02:38;;;;;;;14.53;4.27;;;;;;;1.35;100.00;102999.19;5003147;28;20304;-54
2022/01/18 07:05:05;;;;;;;13.93;4.20;;;;;;;1.39;100.00;103009.88;4999602;28;20729;-52
2022/01/18 07:07:31;;;;;;;11.33;3.53;;;;;;;1.50;100.00;103009.75;5001770;28;20786;-54
2022/01/18 07:09:57;;;;;;;11.50;3.47;;;;;;;1.40;100.00;103009.13;4997491;28;20259;-53
2022/01/18 07:12:25;;;;;;;15.13;3.70;;;;;;;1.51;100.00;103016.72;5002551;28;20229;-53
2022/01/18 07:14:51;;;;;;;19.10;5.27;;;;;;;1.50;100.00;103025.28;5003658;28;20234;-55
2022/01/18 07:17:18;;;;;;;18.63;4.87;;;;;;;1.52;100.00;103029.81;5007914;28;20255;-55
2022/01/18 07:19:45;;;;;;;14.40;3.83;;;;;;;1.62;100.00;103033.97;5003619;28;20757;-57
2022/01/18 07:22:12;;;;;;;10.23;4.13;;;;;;;1.60;100.00;103030.34;5003020;28;20263;-54
2022/01/18 07:24:41;;;;;;;15.53;5.17;;;;;;;1.58;100.00;103029.31;5000428;28;20716;-54
2022/01/18 07:27:09;;;;;;;17.07;5.23;;;;;;;1.61;100.00;103030.44;5000029;28;20232;-54
2022/01/18 07:29:35;;;;;;;8.83;3.70;;;;;;;1.64;100.00;103046.22;5006926;28;20309;-53
2022/01/18 07:32:02;;;;;;;10.50;3.60;;;;;;;1.74;100.00;103050.38;5003512;28;20835;-54
2022/01/18 07:34:31;;;;;;;15.17;3.80;;;;;;;1.73;100.00;103056.34;5000344;28;20255;-53
2022/01/18 07:36:59;;;;;;;7.83;2.73;;;;;;;1.73;100.00;103056.34;4999241;28;20748;-52
2022/01/18 07:39:25;;;;;;;12.87;3.57;;;;;;;1.75;100.00;103054.75;5003853;28;20239;-54
2022/01/18 07:41:51;;;;;;;12.83;4.37;;;;;;;1.80;100.00;103058.59;5004480;28;20236;-54
2022/01/18 07:44:18;;;;;;;9.13;3.87;;;;;;;1.83;100.00;103056.22;4999839;28;20240;-54
2022/01/18 07:46:44;;;;;;;11.67;3.70;;;;;;;1.84;100.00;103065.78;5002851;28;20263;-53
2022/01/18 07:49:10;;;;;;;7.50;3.73;;;;;;;1.94;100.00;103066.47;5002365;28;20615;-54
2022/01/18 07:51:37;;;;;;;18.10;5.83;;;;;;;1.95;100.00;103078.59;5005409;28;20246;-54
2022/01/18 07:54:04;;;;;;;8.23;3.47;;;;;;;1.95;100.00;103083.78;5002864;28;20704;-54
2022/01/18 07:56:31;;;;;;;13.63;4.33;;;;;;;1.99;100.00;103080.63;5003072;28;20278;-54
2022/01/18 07:58:57;;;;;;;8.17;3.17;;;;;;;1.99;100.00;103071.16;5000365;28;20644;-53
2022/01/18 08:01:23;;;;;;;9.43;4.03;;;;;;;2.03;100.00;103078.34;5003099;28;20264;-54
2022/01/18 08:03:50;;;;;;;15.40;3.83;;;;;;;2.06;100.00;103088.94;5004432;28;20232;-53
2022/01/18 08:06:16;;;;;;;8.70;3.20;;;;;;;2.00;100.00;103097.97;5003899;28;20279;-54
2022/01/18 08:08:42;;;;;;;11.23;4.47;;;;;;;2.03;100.00;103101.66;5005358;28;20303;-54
2022/01/18 08:11:10;;;;;;;8.10;3.60;;;;;;;2.08;100.00;103096.84;4998032;28;20256;-53
2022/01/18 08:13:40;;;;;;;13.73;4.03;;;;;;;2.06;100.00;103099.31;4998022;28;20318;-52
2022/01/18 08:16:22;;;;;;;11.20;4.37;;;;;;;2.05;100.00;103101.78;4999254;28;20389;-54
2022/01/18 08:18:49;;;;;;;11.33;4.03;;;;;;;2.12;100.00;103109.22;5002571;28;20235;-54
2022/01/18 08:21:15;;;;;;;9.07;3.70;;;;;;;2.20;100.00;103108.06;5002217;28;20243;-53
2022/01/18 08:23:42;;;;;;;11.23;3.73;;;;;;;2.27;100.00;103099.94;5008077;28;20274;-53
2022/01/18 08:26:09;;;;;;;8.87;3.63;;;;;;;2.34;100.00;103107.34;5000592;28;20236;-52
2022/01/18 08:28:36;;;;;;;12.70;4.00;;;;;;;2.37;100.00;103107.56;5007066;28;20787;-52
2022/01/18 08:31:03;;;;;;;7.83;3.47;;;;;;;2.47;100.00;103113.41;5002497;28;20302;-55
2022/01/18 08:33:31;;;;;;;9.50;3.73;;;;;;;2.49;100.00;103128.28;4997321;28;20256;-52
2022/01/18 08:35:59;;;;;;;10.63;3.73;;;;;;;2.55;100.00;103127.81;5001598;28;20236;-53
2022/01/18 08:38:25;;;;;;;7.13;3.63;;;;;;;2.60;100.00;103113.47;5006465;28;20232;-53
2022/01/18 08:40:51;;;;;;;9.17;3.80;;;;;;;2.68;100.00;103108.81;4996474;28;20240;-52
2022/01/18 08:43:19;;;;;;;8.77;3.77;;;;;;;2.78;100.00;103100.88;4998675;28;20665;-52
2022/01/18 08:45:45;;;;;;;9.23;3.33;;;;;;;2.77;100.00;103105.19;4999647;28;20310;-53
2022/01/18 08:48:12;;;;;;;9.30;3.60;;;;;;;2.77;100.00;103120.75;5005008;28;20263;-53
2022/01/18 08:50:38;;;;;;;14.30;4.00;;;;;;;2.83;100.00;103125.44;4995416;28;20248;-53
2022/01/18 08:53:05;;;;;;;10.60;3.67;;;;;;;2.89;100.00;103120.66;4997129;28;20764;-54
2022/01/18 08:55:33;;;;;;;9.33;3.13;;;;;;;3.01;100.00;103120.59;5003493;28;20312;-53
2022/01/18 08:57:59;;;;;;;9.93;3.37;;;;;;;3.09;100.00;103119.44;5004847;28;20331;-54
2022/01/18 09:00:27;;;;;;;12.33;4.07;;;;;;;3.12;100.00;103119.63;5002055;28;20369;-52
2022/01/18 09:02:53;;;;;;;12.77;3.60;;;;;;;3.24;100.00;103125.66;5004175;28;20244;-53
2022/01/18 09:05:22;;;;;;;7.97;3.47;;;;;;;3.33;100.00;103125.38;5001540;28;20291;-54
2022/01/18 09:07:49;;;;;;;9.97;3.63;;;;;;;3.40;100.00;103126.69;5002391;28;20237;-54
2022/01/18 09:10:15;;;;;;;7.80;4.03;;;;;;;3.40;100.00;103129.28;5003552;28;20677;-53
2022/01/18 09:12:42;;;;;;;9.33;3.60;;;;;;;3.45;100.00;103131.41;5000173;28;20314;-53
2022/01/18 09:15:11;;;;;;;12.60;4.37;;;;;;;3.47;100.00;103134.97;5001643;28;20249;-53
2022/01/18 09:17:40;;;;;;;6.90;4.03;;;;;;;3.55;100.00;103144.19;5007925;28;20232;-53
2022/01/18 09:20:09;;;;;;;8.27;4.13;;;;;;;3.50;100.00;103136.88;5007421;28;20279;-53
2022/01/18 09:22:38;;;;;;;13.43;4.10;;;;;;;3.66;100.00;103144.91;5002144;28;20281;-53
2022/01/18 09:25:06;;;;;;;17.67;4.23;;;;;;;3.69;100.00;103142.50;5005191;28;20823;-52
2022/01/18 09:27:32;;;;;;;12.40;4.73;;;;;;;3.68;100.00;103148.47;5005363;28;20642;-53
2022/01/18 09:29:58;;;;;;;13.07;4.17;;;;;;;3.68;99.14;103156.28;5001967;28;20264;-52
2022/01/18 09:32:25;;;;;;;17.57;4.17;;;;;;;3.74;99.86;103153.19;4995535;28;20714;-53
2022/01/18 09:34:53;;;;;;;10.73;3.23;;;;;;;3.94;98.61;103146.72;5010079;28;20263;-54
2022/01/18 09:37:19;;;;;;;11.03;3.77;;;;;;;3.86;98.16;103145.28;5003417;28;20676;-52
2022/01/18 09:39:46;;;;;;;12.60;4.00;;;;;;;4.00;98.21;103154.88;5005353;28;20299;-52
2022/01/18 09:42:13;;;;;;;14.10;4.07;;;;;;;3.94;98.75;103154.50;5004996;28;20267;-54
2022/01/18 09:44:40;;;;;;;12.07;3.27;;;;;;;3.93;98.17;103153.63;5004322;28;20225;-53
2022/01/18 09:47:07;;;;;;;12.80;3.77;;;;;;;4.10;97.09;103148.59;5005503;28;20229;-54
2022/01/18 09:49:33;;;;;;;13.97;4.40;;;;;;;4.00;98.25;103139.28;5003355;28;20727;-54
2022/01/18 09:52:01;;;;;;;15.10;3.43;;;;;;;4.21;96.89;103144.97;5003011;28;20308;-54
2022/01/18 09:54:28;;;;;;;10.57;3.37;;;;;;;4.29;95.76;103144.66;4998702;28;20237;-55
2022/01/18 09:56:54;;;;;;;10.60;3.30;;;;;;;4.32;95.93;103149.16;5001169;28;20508;-53
2022/01/18 09:59:20;;;;;;;7.90;3.17;;;;;;;4.31;96.28;103148.25;5010441;28;20241;-53
2022/01/18 10:01:47;;;;;;;15.73;3.93;;;;;;;4.33;95.70;103150.97;5005691;28;20295;-52
2022/01/18 10:04:16;;;;;;;7.83;3.83;;;;;;;4.38;95.75;103159.03;5006629;28;20248;-53
2022/01/18 10:06:43;;;;;;;12.40;3.43;;;;;;;4.28;95.20;103153.28;5004329;28;20241;-53
2022/01/18 10:09:12;;;;;;;9.23;3.20;;;;;;;4.25;95.41;103158.28;5001277;28;20872;-52
2022/01/18 10:12:07;;;;;;;25.60;4.57;;;;;;;4.27;95.65;103159.25;5002554;28;20487;-53
2022/01/18 10:14:34;;;;;;;17.57;3.70;;;;;;;4.35;94.90;103174.44;5010344;28;20236;-53
2022/01/18 10:17:01;;;;;;;7.67;3.23;;;;;;;4.41;94.30;103167.03;5002110;28;20280;-52
2022/01/18 10:19:31;;;;;;;9.53;3.23;;;;;;;4.46;93.52;103163.03;5007908;28;20236;-53
2022/01/18 10:22:07;;;;;;;6.70;2.97;;;;;;;4.54;93.68;103173.13;5005116;28;20229;-54
2022/01/18 10:24:35;;;;;;;10.20;2.83;;;;;;;4.49;94.17;103168.41;5007422;28;20290;-52
2022/01/18 10:27:01;;;;;;;5.20;2.07;;;;;;;4.51;93.85;103165.13;5000182;28;20269;-53
2022/01/18 10:29:30;;;;;;;11.57;2.53;;;;;;;4.57;93.86;103158.50;5008174;28;20290;-52
2022/01/18 10:32:00;;;;;;;7.93;2.63;;;;;;;4.66;93.42;103162.56;4987686;28;20265;-53
2022/01/18 10:34:41;;;;;;;9.20;2.73;;;;;;;4.72;93.63;103164.66;5005282;28;20289;-51
2022/01/18 10:37:10;;;;;;;8.00;3.73;;;;;;;4.85;92.10;103163.72;5002988;28;20236;-52
2022/01/18 10:39:39;;;;;;;8.83;3.00;;;;;;;4.76;92.89;103159.72;5005704;28;20271;-53
2022/01/18 10:42:18;;;;;;;9.23;2.47;;;;;;;4.76;92.36;103153.63;5005101;28;20257;-52
2022/01/18 10:44:46;;;;;;;10.23;3.70;;;;;;;4.65;92.31;103149.47;5005945;28;20771;-52
2022/01/18 10:47:13;;;;;;;9.93;3.67;;;;;;;4.65;93.03;103149.47;5003420;28;20229;-53
2022/01/18 10:49:44;;;;;;;12.87;3.63;;;;;;;4.77;93.06;103135.53;5007883;28;20267;-53
2022/01/18 10:52:12;;;;;;;8.93;3.00;;;;;;;4.83;92.02;103137.59;5003511;28;20229;-52
2022/01/18 10:54:43;;;;;;;17.53;2.80;;;;;;;4.98;90.65;103145.41;5004315;28;20232;-53
2022/01/18 10:57:12;;;;;;;5.87;2.40;;;;;;;5.09;90.31;103149.59;5001110;28;20833;-51
2022/01/18 10:59:40;;;;;;;6.27;2.60;;;;;;;5.09;90.12;103147.00;5003859;28;20316;-52
2022/01/18 11:02:13;;;;;;;7.33;2.30;;;;;;;5.05;89.96;103158.00;4999443;28;20233;-53
2022/01/18 11:04:42;;;;;;;7.33;2.60;;;;;;;4.97;90.83;103156.66;5002231;28;20303;-52
2022/01/18 11:07:09;;;;;;;9.88;3.70;;;;;;;4.94;90.96;103156.47;5014079;28;20482;-51
2022/01/18 11:09:36;;;;;;;10.73;3.00;;;;;;;4.93;91.00;103152.97;5001707;28;20260;-52
2022/01/18 11:12:05;;;;;;;9.87;2.67;;;;;;;4.84;91.77;103151.50;5001250;28;20264;-52
2022/01/18 11:14:32;;;;;;;8.53;2.17;;;;;;;4.94;90.87;103146.03;4998805;28;20225;-51
2022/01/18 11:16:59;;;;;;;8.10;2.37;;;;;;;4.98;90.75;103156.75;5002288;28;20258;-54
2022/01/18 11:19:33;;;;;;;8.30;3.27;;;;;;;5.13;89.40;103167.19;4993478;28;20280;-51
2022/01/18 11:22:01;;;;;;;6.37;2.23;;;;;;;5.17;88.23;103158.75;4999682;28;20920;-54
2022/01/18 11:24:29;;;;;;;6.20;2.03;;;;;;;5.08;88.19;103158.19;5003896;28;20336;-56
2022/01/18 11:26:56;;;;;;;5.90;2.13;;;;;;;4.98;89.56;103158.44;5007621;28;20425;-50
2022/01/18 11:29:25;;;;;;;8.83;1.90;;;;;;;5.07;89.07;103156.41;4999710;28;20245;-53
2022/01/18 11:31:54;;;;;;;6.47;1.70;;;;;;;5.06;88.24;103152.00;5001255;28;20283;-52
2022/01/18 11:34:26;;;;;;;7.33;2.00;;;;;;;5.18;87.90;103150.13;4999207;28;20256;-50
2022/01/18 11:36:53;;;;;;;10.80;2.47;;;;;;;5.13;88.16;103148.06;4994595;28;20257;-52
2022/01/18 11:39:20;;;;;;;3.20;1.73;;;;;;;5.28;87.85;103142.88;5007955;28;20363;-50
2022/01/18 11:41:47;;;;;;;9.07;1.80;;;;;;;5.36;86.98;103149.44;5002658;28;20803;-52
2022/01/18 11:44:16;;;;;;;9.60;2.40;;;;;;;5.37;87.01;103148.59;4997855;28;20254;-53
2022/01/18 11:46:48;;;;;;;4.50;1.57;;;;;;;5.41;86.75;103153.22;5002437;28;20247;-54
2022/01/18 11:49:19;;;;;;;3.17;1.33;;;;;;;5.35;86.32;103163.28;5003008;28;20279;-53
2022/01/18 11:51:48;;;;;;;7.87;2.07;;;;;;;5.34;86.22;103156.28;5004322;28;20336;-54
2022/01/18 11:54:25;;;;;;;4.50;1.37;;;;;;;5.38;86.23;103164.34;5002527;28;20229;-53
2022/01/18 11:56:51;;;;;;;4.33;1.90;;;;;;;5.47;86.02;103166.59;5010162;28;20240;-53
2022/01/18 11:59:19;;;;;;;3.80;1.40;;;;;;;5.44;84.81;103159.50;4996925;28;20332;-54
2022/01/18 12:01:49;;;;;;;6.97;2.03;;;;;;;5.36;86.56;103165.06;5001027;28;20264;-53
2022/01/18 12:05:04;;;;;;;6.50;2.33;;;;;;;5.47;86.33;103163.97;4987949;28;20723;-53
2022/01/18 12:07:50;;;;;;;4.07;1.67;;;;;;;5.46;85.98;103172.59;5001982;28;20240;-53
2022/01/18 12:10:43;;;;;;;6.07;1.80;;;;;;;5.42;86.19;103171.53;5008274;28;20310;-53
2022/01/18 12:13:13;;;;;;;4.33;1.73;;;;;;;5.39;86.34;103170.44;4993212;28;20229;-52
2022/01/18 12:15:50;;;;;;;4.47;1.77;;;;;;;5.39;86.80;103168.75;5007794;28;20246;-54